Time;durP1;ratioP1;P1;durP2;ratioP2;P2;SDS_P1;SDS_P2;PMS_P1;PMS_P2;Temp;Humidity;BMP_temperature;BMP_pressure;BME280_temperature;BME280_humidity;BME280_pressure;Samples;Min_cycle;Max_cycle;Signal;HPM_P1;HPM_P2
2022/02/21 00:02:11;;;;;;;2.17;1.13;;;;;;;21.68;38.91;98936.13;5033326;28;20033;-69
2022/02/21 00:04:37;;;;;;;2.50;1.17;;;;;;;21.62;38.72;98934.41;5038636;28;20974;-69
2022/02/21 00:07:04;;;;;;;3.78;1.15;;;;;;;21.57;38.86;98935.13;5031183;28;20101;-69
2022/02/21 00:09:29;;;;;;;2.88;1.40;;;;;;;21.54;38.87;98951.47;5037932;28;20132;-69
2022/02/21 00:11:55;;;;;;;3.05;1.25;;;;;;;21.53;38.68;98946.41;5029574;28;20033;-69
2022/02/21 00:14:21;;;;;;;1.98;1.23;;;;;;;21.45;39.06;98952.09;5038703;28;20555;-69
2022/02/21 00:16:46;;;;;;;2.08;1.05;;;;;;;21.48;39.03;98967.50;5031088;28;20025;-68
2022/02/21 00:19:12;;;;;;;2.90;1.20;;;;;;;21.46;38.95;98974.88;5035954;28;21013;-68
2022/02/21 00:21:38;;;;;;;3.17;1.38;;;;;;;21.37;38.86;98966.53;5032121;28;20670;-68
2022/02/21 00:24:04;;;;;;;4.82;1.58;;;;;;;21.24;38.94;98962.28;5038350;28;20035;-68
2022/02/21 00:26:29;;;;;;;2.92;1.13;;;;;;;21.36;38.92;98976.31;5036260;28;20084;-69
2022/02/21 00:28:55;;;;;;;3.30;1.50;;;;;;;21.30;38.94;98985.16;5037742;28;20029;-69
2022/02/21 00:31:20;;;;;;;2.60;1.33;;;;;;;21.25;39.04;98995.66;5035636;28;20556;-69
2022/02/21 00:33:46;;;;;;;3.42;1.30;;;;;;;21.19;39.04;99011.66;5036703;28;20056;-69
2022/02/21 00:36:11;;;;;;;3.17;1.38;;;;;;;21.19;39.12;99001.06;5032129;28;20044;-69
2022/02/21 00:38:37;;;;;;;4.63;1.33;;;;;;;21.17;39.01;99001.25;5037116;28;20087;-71
2022/02/21 00:41:03;;;;;;;4.65;1.35;;;;;;;21.14;39.15;98999.09;5029776;28;20047;-69
2022/02/21 00:43:28;;;;;;;2.28;1.10;;;;;;;21.11;39.10;98989.78;5038435;28;20646;-68
2022/02/21 00:45:55;;;;;;;2.20;1.08;;;;;;;21.12;39.24;98998.50;5031822;28;20041;-69
2022/02/21 00:48:20;;;;;;;4.85;1.40;;;;;;;21.08;39.07;99005.31;5040540;28;20663;-68
2022/02/21 00:50:46;;;;;;;3.42;1.20;;;;;;;21.03;39.16;99007.88;5029020;28;20037;-69
2022/02/21 00:53:12;;;;;;;4.28;1.35;;;;;;;20.97;39.32;99020.16;5035350;28;20040;-69
2022/02/21 00:55:38;;;;;;;1.55;1.15;;;;;;;20.96;39.15;99021.19;5033605;28;20534;-69
2022/02/21 00:58:05;;;;;;;2.97;1.30;;;;;;;20.93;39.22;99029.59;5035191;28;20119;-69
2022/02/21 01:00:32;;;;;;;4.50;1.23;;;;;;;20.89;39.45;99025.81;5036471;28;20040;-69
2022/02/21 01:02:58;;;;;;;3.78;1.45;;;;;;;20.87;39.57;99043.75;5035945;28;20235;-69
2022/02/21 01:05:23;;;;;;;4.00;1.58;;;;;;;20.86;39.05;99036.84;5031067;28;20055;-69
2022/02/21 01:07:49;;;;;;;3.20;1.33;;;;;;;20.86;39.30;99046.63;5034106;28;20029;-68
2022/02/21 01:10:15;;;;;;;3.30;1.30;;;;;;;20.79;39.46;99055.47;5029484;28;20533;-69
2022/02/21 01:12:40;;;;;;;2.28;1.15;;;;;;;20.79;39.57;99065.22;5036093;28;20060;-69
2022/02/21 01:15:08;;;;;;;1.90;1.23;;;;;;;20.77;39.48;99073.41;5033957;28;20033;-69
2022/02/21 01:17:33;;;;;;;3.97;1.52;;;;;;;20.74;39.57;99062.47;5036584;28;20045;-69
2022/02/21 01:20:03;;;;;;;3.25;1.75;;;;;;;20.76;39.41;99086.84;5029982;28;20037;-70
2022/02/21 01:22:29;;;;;;;3.05;1.25;;;;;;;20.77;39.22;99094.56;5037325;28;20078;-68
2022/02/21 01:24:55;;;;;;;2.47;1.20;;;;;;;20.71;39.32;99100.78;5033991;28;20266;-68
2022/02/21 01:27:20;;;;;;;5.22;1.50;;;;;;;20.68;39.48;99084.56;5035187;28;20037;-69
2022/02/21 01:29:46;;;;;;;3.72;1.65;;;;;;;20.55;39.48;99130.50;5038846;28;20041;-70
2022/02/21 01:32:11;;;;;;;5.70;1.55;;;;;;;20.63;39.49;99124.88;5064828;28;20044;-68
2022/02/21 01:34:37;;;;;;;6.85;1.63;;;;;;;20.63;39.44;99109.00;5042287;28;20036;-71
2022/02/21 01:37:03;;;;;;;3.63;1.48;;;;;;;20.63;39.37;99124.88;5030921;28;20476;-69
2022/02/21 01:39:29;;;;;;;3.83;1.70;;;;;;;20.56;39.45;99140.06;5032216;28;20048;-69
2022/02/21 01:41:54;;;;;;;2.97;1.08;;;;;;;20.55;39.47;99146.38;5029797;28;20037;-69
2022/02/21 01:44:32;;;;;;;5.32;1.83;;;;;;;20.55;39.50;99148.22;5035377;28;20037;-68
2022/02/21 01:46:58;;;;;;;5.85;1.90;;;;;;;20.55;39.39;99154.31;5036201;28;20033;-69
2022/02/21 01:49:23;;;;;;;2.90;1.30;;;;;;;20.49;39.52;99150.72;5036131;28;20549;-69
2022/02/21 01:51:50;;;;;;;4.00;1.38;;;;;;;20.50;39.37;99144.41;5025819;28;20043;-69
2022/02/21 01:54:16;;;;;;;4.43;1.60;;;;;;;20.44;39.38;99155.84;5033809;28;20037;-69
2022/02/21 01:56:41;;;;;;;3.75;1.63;;;;;;;20.44;39.51;99166.44;5035045;28;20040;-69
2022/02/21 01:59:07;;;;;;;4.57;1.80;;;;;;;20.43;39.31;99153.44;5034798;28;20040;-69
2022/02/21 02:01:32;;;;;;;2.47;1.20;;;;;;;20.45;39.29;99162.75;5062555;28;20048;-69
2022/02/21 02:04:00;;;;;;;6.60;1.92;;;;;;;20.45;39.32;99173.34;5033199;28;20041;-68
2022/02/21 02:06:26;;;;;;;5.95;1.73;;;;;;;20.38;39.55;99183.16;5029116;28;20079;-68
2022/02/21 02:08:51;;;;;;;4.70;1.52;;;;;;;20.40;39.41;99181.09;5036706;28;20036;-68
2022/02/21 02:11:17;;;;;;;4.70;1.85;;;;;;;20.41;39.37;99185.41;5027097;28;20045;-68
2022/02/21 02:13:43;;;;;;;4.40;1.75;;;;;;;20.38;39.44;99192.94;5034732;28;20151;-69
2022/02/21 02:16:08;;;;;;;4.93;1.50;;;;;;;20.39;39.34;99202.47;5026238;28;20033;-69
2022/02/21 02:18:34;;;;;;;5.18;1.52;;;;;;;20.39;39.28;99202.47;5037033;28;20048;-69
2022/02/21 02:20:59;;;;;;;6.43;1.77;;;;;;;20.40;39.31;99212.03;5024794;28;20255;-69
2022/02/21 02:23:25;;;;;;;5.68;1.67;;;;;;;20.34;39.30;99189.94;5036555;28;20441;-69
2022/02/21 02:25:51;;;;;;;7.03;2.10;;;;;;;20.29;39.40;99197.72;5030698;28;20269;-69
2022/02/21 02:28:16;;;;;;;5.95;1.70;;;;;;;20.28;39.43;99211.16;5028908;28;20143;-69
2022/02/21 02:30:42;;;;;;;4.80;1.67;;;;;;;20.29;39.27;99194.25;5031617;28;20071;-70
2022/02/21 02:33:07;;;;;;;7.65;2.30;;;;;;;20.29;39.34;99205.66;5032580;28;20039;-68
2022/02/21 02:35:34;;;;;;;4.40;1.85;;;;;;;20.28;39.27;99201.38;5034497;28;20059;-70
2022/02/21 02:38:01;;;;;;;4.80;1.80;;;;;;;20.23;39.36;99203.88;5029821;28;20094;-69
2022/02/21 02:40:27;;;;;;;3.20;1.15;;;;;;;20.23;39.36;99203.88;5032621;28;20062;-69
2022/02/21 02:42:54;;;;;;;5.03;1.48;;;;;;;20.25;39.34;99185.16;5030628;28;20616;-68
2022/02/21 02:45:19;;;;;;;6.22;1.90;;;;;;;20.20;39.31;99191.13;5032692;28;20033;-68
2022/02/21 02:47:45;;;;;;;3.65;1.20;;;;;;;20.22;39.25;99204.91;5032946;28;20072;-69
2022/02/21 02:50:10;;;;;;;5.57;2.22;;;;;;;20.23;39.20;99217.09;5033076;28;20577;-68
2022/02/21 02:52:36;;;;;;;3.85;1.77;;;;;;;20.20;39.28;99205.13;5028003;28;20036;-69
2022/02/21 02:55:03;;;;;;;2.83;1.63;;;;;;;20.19;39.58;99198.25;5030453;28;20495;-68
2022/02/21 02:57:28;;;;;;;5.82;1.88;;;;;;;20.16;39.30;99216.38;5030224;28;20036;-69
2022/02/21 02:59:54;;;;;;;5.65;2.10;;;;;;;20.10;39.19;99193.47;5039482;28;20985;-70
2022/02/21 03:02:19;;;;;;;3.00;1.90;;;;;;;20.12;39.20;99197.53;5029270;28;20044;-69
2022/02/21 03:04:45;;;;;;;3.65;1.63;;;;;;;20.10;39.25;99210.13;5038310;28;20028;-69
2022/02/21 03:07:10;;;;;;;6.68;2.00;;;;;;;20.10;39.11;99210.13;5028656;28;20134;-68
2022/02/21 03:09:36;;;;;;;9.27;2.25;;;;;;;20.07;39.24;99209.75;5039141;28;20076;-69
2022/02/21 03:12:02;;;;;;;6.82;1.88;;;;;;;20.11;39.20;99229.44;5024725;28;20049;-68
2022/02/21 03:14:27;;;;;;;3.78;1.77;;;;;;;20.13;39.08;99212.34;5035191;28;20045;-68
2022/02/21 03:16:53;;;;;;;5.80;1.70;;;;;;;20.10;39.14;99233.09;5031630;28;20659;-70
2022/02/21 03:19:19;;;;;;;5.32;1.90;;;;;;;20.04;39.23;99224.22;5032363;28;20048;-69
2022/02/21 03:21:46;;;;;;;6.45;2.00;;;;;;;20.07;39.09;99231.69;5034102;28;20028;-69
2022/02/21 03:24:12;;;;;;;6.65;1.80;;;;;;;20.02;39.26;99228.91;5030446;28;21241;-69
2022/02/21 03:26:37;;;;;;;7.53;2.42;;;;;;;20.03;39.25;99227.09;5031580;28;20063;-69
2022/02/21 03:29:03;;;;;;;5.38;2.08;;;;;;;20.05;39.11;99236.41;5034259;28;20474;-69
2022/02/21 03:31:29;;;;;;;4.85;1.77;;;;;;;19.99;39.19;99245.22;5032970;28;20029;-69
2022/02/21 03:33:54;;;;;;;6.22;2.00;;;;;;;20.01;39.05;99242.34;5037210;28;20574;-69
2022/02/21 03:36:20;;;;;;;6.45;2.25;;;;;;;19.95;39.03;99222.91;5031203;28;20048;-69
2022/02/21 03:38:45;;;;;;;5.28;1.80;;;;;;;19.99;39.14;99232.00;5037530;28;20048;-69
2022/02/21 03:41:11;;;;;;;6.78;1.95;;;;;;;19.98;39.20;99267.38;5034611;28;20410;-67
2022/02/21 03:43:38;;;;;;;4.22;2.13;;;;;;;19.94;39.17;99270.69;5052410;28;20073;-69
2022/02/21 03:46:04;;;;;;;3.72;1.38;;;;;;;19.96;38.85;99244.84;5036832;28;20097;-70
2022/02/21 03:48:29;;;;;;;7.70;2.03;;;;;;;19.93;39.24;99256.66;5032906;28;20041;-68
2022/02/21 03:50:55;;;;;;;6.13;2.03;;;;;;;19.94;39.16;99246.91;5039418;28;20025;-68
2022/02/21 03:53:21;;;;;;;4.90;1.92;;;;;;;19.88;39.21;99248.56;5029112;28;20561;-69
2022/02/21 03:55:46;;;;;;;4.72;1.90;;;;;;;19.91;39.07;99248.13;5037970;28;20099;-68
2022/02/21 03:58:12;;;;;;;6.15;1.55;;;;;;;19.87;39.04;99260.97;5032203;28;20045;-68
2022/02/21 04:00:37;;;;;;;4.72;1.85;;;;;;;19.75;39.11;99248.69;5040087;28;20029;-69
2022/02/21 04:03:03;;;;;;;5.72;1.90;;;;;;;19.85;39.20;99272.78;5031100;28;20029;-69
2022/02/21 04:05:28;;;;;;;3.70;1.73;;;;;;;19.87;39.19;99262.81;5040057;28;20351;-68
2022/02/21 04:07:54;;;;;;;6.75;2.05;;;;;;;19.86;39.11;99263.81;5034929;28;20423;-70
2022/02/21 04:10:19;;;;;;;6.07;1.80;;;;;;;19.84;39.17;99276.44;5035377;28;20123;-69
2022/02/21 04:12:45;;;;;;;4.20;1.77;;;;;;;19.80;39.24;99265.50;5037044;28;20240;-70
2022/02/21 04:15:11;;;;;;;5.95;2.20;;;;;;;19.79;39.17;99269.19;5034000;28;20532;-70
2022/02/21 04:17:44;;;;;;;5.43;1.85;;;;;;;19.85;39.04;99262.22;5032446;28;20036;-69
2022/02/21 04:20:16;;;;;;;4.63;2.17;;;;;;;19.83;39.03;99274.84;5037237;28;20033;-69
2022/02/21 04:22:41;;;;;;;6.55;2.00;;;;;;;19.78;39.06;99275.50;5051367;28;20139;-70
2022/02/21 04:25:09;;;;;;;5.82;2.10;;;;;;;19.70;39.22;99267.00;5039578;28;20045;-69
2022/02/21 04:27:49;;;;;;;5.18;1.85;;;;;;;19.78;39.10;99280.78;5035007;28;20282;-70
2022/02/21 04:30:17;;;;;;;4.43;1.70;;;;;;;19.76;39.00;99274.09;5035441;28;20032;-70
2022/02/21 04:32:46;;;;;;;5.63;1.80;;;;;;;19.79;39.02;99290.31;5030956;28;20474;-70
2022/02/21 04:35:13;;;;;;;5.70;1.90;;;;;;;19.78;39.09;99293.97;5035943;28;20045;-69
2022/02/21 04:37:38;;;;;;;4.07;1.92;;;;;;;19.74;39.04;99295.41;5030259;28;20037;-70
2022/02/21 04:40:07;;;;;;;5.75;1.73;;;;;;;19.71;39.13;99305.59;5037285;28;20045;-69
2022/02/21 04:42:32;;;;;;;6.03;1.95;;;;;;;19.74;39.00;99294.59;5029968;28;20208;-70
2022/02/21 04:44:58;;;;;;;6.95;2.25;;;;;;;19.73;38.98;99275.31;5037924;28;20615;-69
2022/02/21 04:47:23;;;;;;;6.90;2.15;;;;;;;19.67;39.21;99296.50;5017563;28;20513;-70
2022/02/21 04:49:49;;;;;;;5.85;2.00;;;;;;;19.65;39.22;99301.19;5036867;28;20021;-69
2022/02/21 04:52:15;;;;;;;6.10;1.90;;;;;;;19.57;39.10;99274.03;5038423;28;20037;-70
2022/02/21 04:54:40;;;;;;;7.57;2.47;;;;;;;19.65;38.88;99302.00;5027536;28;20076;-71
2022/02/21 04:57:06;;;;;;;4.57;1.92;;;;;;;19.67;39.06;99296.50;5042261;28;20041;-70
2022/02/21 04:59:31;;;;;;;6.05;2.47;;;;;;;19.67;38.97;99281.47;5026852;28;20030;-70
2022/02/21 05:02:00;;;;;;;5.97;1.90;;;;;;;19.65;39.06;99285.34;5034120;28;20045;-69
2022/02/21 05:04:26;;;;;;;4.60;1.95;;;;;;;19.64;38.89;99273.16;5030789;28;20091;-70
2022/02/21 05:06:51;;;;;;;4.53;1.95;;;;;;;19.58;39.05;99264.28;5039195;28;20033;-69
2022/02/21 05:09:17;;;;;;;7.72;2.13;;;;;;;19.63;38.94;99284.75;5031017;28;20547;-69
2022/02/21 05:11:42;;;;;;;4.95;1.92;;;;;;;19.63;39.01;99290.03;5034805;28;20037;-70
2022/02/21 05:14:08;;;;;;;6.13;2.03;;;;;;;19.62;39.01;99281.31;5031062;28;20543;-69
2022/02/21 05:16:33;;;;;;;5.20;2.05;;;;;;;19.58;39.14;99282.78;5029060;28;20091;-69
2022/02/21 05:19:02;;;;;;;7.63;2.00;;;;;;;19.54;38.94;99282.38;5031966;28;20076;-70
2022/02/21 05:21:31;;;;;;;5.07;1.80;;;;;;;19.57;38.85;99287.25;5033569;28;20041;-69
2022/02/21 05:23:58;;;;;;;5.60;1.80;;;;;;;19.61;38.80;99288.41;5030377;28;20032;-70
2022/02/21 05:26:24;;;;;;;6.55;2.10;;;;;;;19.52;39.08;99273.00;5036707;28;20049;-70
2022/02/21 05:28:50;;;;;;;4.95;2.05;;;;;;;19.59;38.86;99287.03;5029080;28;20553;-69
2022/02/21 05:31:16;;;;;;;4.68;1.60;;;;;;;19.48;38.88;99263.91;5034958;28;20548;-69
2022/02/21 05:33:41;;;;;;;4.45;1.70;;;;;;;19.48;38.94;99275.28;5028568;28;20041;-70
2022/02/21 05:36:07;;;;;;;6.28;2.30;;;;;;;19.50;39.12;99267.94;5039296;28;20421;-69
2022/02/21 05:38:33;;;;;;;9.02;2.35;;;;;;;19.49;39.19;99273.44;5033978;28;20045;-69
2022/02/21 05:40:58;;;;;;;5.50;1.98;;;;;;;19.53;39.07;99287.84;5035816;28;20395;-70
2022/02/21 05:43:24;;;;;;;6.97;2.03;;;;;;;19.50;39.07;99273.22;5031558;28;20041;-69
2022/02/21 05:45:49;;;;;;;5.97;2.30;;;;;;;19.50;39.13;99269.78;5031429;28;20150;-70
2022/02/21 05:48:15;;;;;;;5.25;2.00;;;;;;;19.49;39.19;99262.88;5011208;28;20032;-70
2022/02/21 05:50:40;;;;;;;6.30;1.98;;;;;;;19.49;39.25;99258.41;5031228;28;20040;-70
2022/02/21 05:53:06;;;;;;;5.13;2.08;;;;;;;19.46;39.38;99265.97;5032317;28;20032;-70
2022/02/21 05:55:31;;;;;;;8.40;1.98;;;;;;;19.48;39.22;99258.63;5037763;28;20041;-70
2022/02/21 05:57:58;;;;;;;8.73;2.50;;;;;;;19.43;39.27;99235.53;5034277;28;20048;-69
2022/02/21 06:00:25;;;;;;;5.63;1.98;;;;;;;19.71;39.04;99245.66;5033540;28;20044;-70
2022/02/21 06:02:50;;;;;;;7.13;1.75;;;;;;;19.96;38.62;99250.13;5031807;28;20047;-69
2022/02/21 06:05:16;;;;;;;6.82;2.20;;;;;;;20.12;38.44;99249.56;5031368;28;20041;-70
2022/02/21 06:07:41;;;;;;;7.22;2.40;;;;;;;20.38;38.31;99264.31;5032168;28;20037;-70
2022/02/21 06:10:07;;;;;;;4.55;2.10;;;;;;;20.59;38.04;99258.59;5030865;28;20036;-69
2022/02/21 06:12:33;;;;;;;5.47;1.90;;;;;;;20.89;37.41;99234.81;5035131;28;20041;-70
2022/02/21 06:14:59;;;;;;;6.90;2.05;;;;;;;21.07;37.19;99261.22;5031170;28;20059;-71
2022/02/21 06:17:26;;;;;;;6.40;1.98;;;;;;;21.15;37.08;99244.22;5034656;28;20054;-70
2022/02/21 06:19:51;;;;;;;7.22;1.70;;;;;;;21.24;37.18;99250.00;5029673;28;20441;-70
2022/02/21 06:22:21;;;;;;;5.15;2.15;;;;;;;21.23;36.91;99251.03;5033188;28;20048;-70
2022/02/21 06:24:47;;;;;;;3.40;1.52;;;;;;;21.12;37.33;99248.13;5026809;28;20192;-70
2022/02/21 06:27:13;;;;;;;3.95;1.50;;;;;;;21.05;37.28;99254.56;5035794;28;20057;-69
2022/02/21 06:29:38;;;;;;;7.65;2.22;;;;;;;20.94;37.57;99258.75;5028659;28;20420;-70
2022/02/21 06:32:04;;;;;;;4.70;2.40;;;;;;;20.88;37.68;99269.44;5034275;28;21497;-70
2022/02/21 06:34:30;;;;;;;5.18;2.22;;;;;;;20.89;37.59;99266.56;5028229;28;20970;-70
2022/02/21 06:36:55;;;;;;;5.90;1.90;;;;;;;20.83;37.74;99267.47;5032686;28;20053;-70
2022/02/21 06:39:21;;;;;;;6.68;2.20;;;;;;;20.90;37.84;99270.03;5032807;28;20029;-70
2022/02/21 06:41:50;;;;;;;4.45;1.40;;;;;;;21.04;37.61;99280.22;5032534;28;21441;-69
2022/02/21 06:44:17;;;;;;;4.18;1.50;;;;;;;21.28;37.10;99273.16;5033822;28;20067;-70
2022/02/21 06:46:43;;;;;;;5.25;1.73;;;;;;;21.54;36.79;99277.25;5031447;28;20033;-69
2022/02/21 06:49:10;;;;;;;6.10;1.90;;;;;;;21.66;36.69;99267.47;5029648;28;20457;-69
2022/02/21 06:51:36;;;;;;;5.07;2.00;;;;;;;21.56;36.56;99247.91;5032064;28;20512;-70
2022/02/21 06:54:06;;;;;;;3.47;1.80;;;;;;;21.51;36.79;99263.66;5029245;28;20040;-70
2022/02/21 06:56:33;;;;;;;7.28;1.65;;;;;;;21.44;37.18;99270.91;5038287;28;20037;-69
2022/02/21 06:58:59;;;;;;;5.05;1.83;;;;;;;21.40;37.14;99275.84;5028165;28;20359;-70
2022/02/21 07:01:24;;;;;;;4.32;1.75;;;;;;;21.26;37.20;99269.94;5029777;28;20059;-70
2022/02/21 07:03:50;;;;;;;3.38;1.63;;;;;;;21.24;37.35;99271.19;5027582;28;20025;-70
2022/02/21 07:06:17;;;;;;;5.53;2.10;;;;;;;21.29;37.17;99264.19;5034714;28;20379;-70
2022/02/21 07:08:42;;;;;;;4.88;1.83;;;;;;;21.29;37.05;99266.03;5031300;28;20614;-69
2022/02/21 07:11:08;;;;;;;5.88;1.95;;;;;;;21.34;37.17;99279.41;5042088;28;20034;-70
2022/02/21 07:13:35;;;;;;;4.72;1.88;;;;;;;21.33;37.19;99281.22;5034004;28;20737;-70
2022/02/21 07:16:00;;;;;;;6.32;2.33;;;;;;;21.31;36.85;99272.72;5038908;28;20049;-69
2022/02/21 07:18:26;;;;;;;5.45;1.40;;;;;;;21.28;36.82;99273.16;5040715;28;20045;-70
2022/02/21 07:20:51;;;;;;;5.32;1.92;;;;;;;21.27;37.14;99282.16;5030242;28;20029;-69
2022/02/21 07:23:17;;;;;;;3.75;1.70;;;;;;;21.36;36.81;99303.81;5042902;28;20037;-70
2022/02/21 07:25:43;;;;;;;4.43;1.70;;;;;;;21.32;37.21;99276.16;5034032;28;20055;-70
2022/02/21 07:28:09;;;;;;;3.83;1.83;;;;;;;21.34;36.98;99280.19;5036476;28;20045;-69
2022/02/21 07:30:34;;;;;;;4.70;1.55;;;;;;;21.41;36.78;99288.06;5039067;28;20045;-69
2022/02/21 07:33:00;;;;;;;6.13;1.67;;;;;;;21.39;36.94;99285.66;5035452;28;20033;-70
2022/02/21 07:35:26;;;;;;;5.55;1.55;;;;;;;21.41;36.87;99277.47;5034024;28;20479;-70
2022/02/21 07:37:52;;;;;;;6.00;1.60;;;;;;;21.38;36.77;99285.88;5028798;28;20048;-70
2022/02/21 07:40:18;;;;;;;7.53;2.38;;;;;;;21.42;36.87;99271.13;5035396;28;20566;-69
2022/02/21 07:42:50;;;;;;;3.90;1.60;;;;;;;21.39;36.83;99261.00;5038995;28;20041;-69
2022/02/21 07:45:17;;;;;;;3.70;1.63;;;;;;;21.37;36.67;99273.66;5034227;28;20033;-70
2022/02/21 07:47:55;;;;;;;3.72;1.65;;;;;;;21.31;36.74;99278.00;5040741;28;20470;-70
2022/02/21 07:50:21;;;;;;;4.85;1.45;;;;;;;21.28;36.91;99261.78;5022288;28;20509;-70
2022/02/21 07:52:48;;;;;;;5.15;1.83;;;;;;;21.18;37.09;99264.13;5037974;28;20434;-70
2022/02/21 07:55:14;;;;;;;4.30;1.80;;;;;;;21.13;37.20;99270.91;5029946;28;20099;-70
2022/02/21 07:57:44;;;;;;;4.50;1.90;;;;;;;21.16;37.11;99252.94;5040346;28;20438;-70
2022/02/21 08:00:12;;;;;;;6.60;2.42;;;;;;;21.26;37.12;99254.06;5035329;28;20068;-70
2022/02/21 08:02:39;;;;;;;5.38;1.88;;;;;;;21.38;36.72;99249.59;5036122;28;20159;-70
2022/02/21 08:05:06;;;;;;;5.25;1.90;;;;;;;21.34;36.77;99255.56;5029123;28;20234;-70
2022/02/21 08:07:32;;;;;;;5.80;2.25;;;;;;;21.40;36.67;99241.44;5037043;28;20037;-70
2022/02/21 08:09:58;;;;;;;3.83;1.52;;;;;;;21.41;36.51;99233.25;5036241;28;20037;-70
2022/02/21 08:12:24;;;;;;;3.78;1.40;;;;;;;21.34;36.70;99227.25;5035290;28;20044;-70
2022/02/21 08:14:49;;;;;;;4.25;1.77;;;;;;;21.38;36.53;99230.28;5038390;28;20139;-69
2022/02/21 08:17:15;;;;;;;3.78;1.70;;;;;;;21.35;36.74;99223.56;5027200;28;20130;-70
2022/02/21 08:19:40;;;;;;;5.05;1.73;;;;;;;21.36;36.72;99227.84;5032383;28;20049;-70
2022/02/21 08:22:06;;;;;;;4.70;1.55;;;;;;;21.29;36.80;99213.09;5032568;28;20063;-70
2022/02/21 08:24:32;;;;;;;5.13;2.13;;;;;;;21.22;36.85;99210.53;5028910;28;20037;-69
2022/02/21 08:26:57;;;;;;;7.40;1.85;;;;;;;21.17;37.03;99220.16;5011039;28;20048;-69
2022/02/21 08:29:24;;;;;;;6.63;1.90;;;;;;;21.09;37.11;99211.53;5037115;28;20064;-69
2022/02/21 08:31:49;;;;;;;3.28;1.52;;;;;;;21.03;37.08;99201.84;5033543;28;20163;-69
2022/02/21 08:34:18;;;;;;;3.42;1.63;;;;;;;21.05;37.23;99196.34;5038465;28;20036;-69
2022/02/21 08:36:43;;;;;;;4.45;2.03;;;;;;;21.18;36.83;99205.88;5032585;28;20064;-69
2022/02/21 08:39:09;;;;;;;7.75;1.92;;;;;;;21.27;36.99;99215.16;5037058;28;20740;-69
2022/02/21 08:41:34;;;;;;;5.63;1.95;;;;;;;21.28;36.92;99225.50;5036480;28;20505;-69
2022/02/21 08:44:00;;;;;;;5.25;1.60;;;;;;;21.30;36.80;99217.34;5035628;28;20041;-70
2022/02/21 08:46:26;;;;;;;5.43;1.95;;;;;;;21.30;36.89;99223.44;5037079;28;20098;-69
2022/02/21 08:48:54;;;;;;;5.18;1.80;;;;;;;21.34;36.97;99216.66;5040033;28;20370;-69
2022/02/21 08:51:20;;;;;;;7.50;1.85;;;;;;;21.38;36.52;99225.78;5034192;28;20140;-69
2022/02/21 08:53:46;;;;;;;7.97;2.22;;;;;;;21.34;36.65;99226.44;5042512;28;20044;-69
2022/02/21 08:56:11;;;;;;;4.50;2.00;;;;;;;21.37;36.43;99216.22;5029732;28;20091;-69
2022/02/21 08:58:37;;;;;;;7.78;2.00;;;;;;;21.28;36.57;99206.97;5042409;28;20498;-68
2022/02/21 09:01:02;;;;;;;4.53;1.83;;;;;;;21.39;36.42;99221.28;5031452;28;20564;-68
2022/02/21 09:03:28;;;;;;;5.45;1.83;;;;;;;21.39;36.38;99231.88;5042161;28;20029;-69
2022/02/21 09:05:54;;;;;;;6.93;2.13;;;;;;;21.39;36.62;99218.63;5032714;28;20734;-69
2022/02/21 09:08:19;;;;;;;6.40;1.83;;;;;;;21.39;36.50;99226.59;5039805;28;20050;-69
2022/02/21 09:10:45;;;;;;;6.53;1.77;;;;;;;21.35;36.47;99220.09;5034536;28;20053;-67
2022/02/21 09:13:12;;;;;;;5.80;2.30;;;;;;;21.38;36.38;99217.84;5035207;28;20094;-70
2022/02/21 09:15:37;;;;;;;7.22;1.98;;;;;;;21.35;36.45;99207.66;5043663;28;20032;-69
2022/02/21 09:18:05;;;;;;;7.13;2.03;;;;;;;21.33;36.43;99185.91;5034526;28;20044;-69
2022/02/21 09:20:36;;;;;;;5.45;1.92;;;;;;;21.42;36.49;99189.84;5040667;28;20612;-69
2022/02/21 09:23:02;;;;;;;5.30;2.15;;;;;;;21.37;36.48;99165.91;5033921;28;20382;-69
2022/02/21 09:25:28;;;;;;;5.57;1.90;;;;;;;21.36;36.45;99166.13;5043623;28;20064;-69
2022/02/21 09:27:54;;;;;;;5.97;2.03;;;;;;;21.40;36.44;99146.91;5031906;28;20095;-69
2022/02/21 09:30:20;;;;;;;5.25;2.20;;;;;;;21.37;36.40;99147.38;5039923;28;20055;-69
2022/02/21 09:32:46;;;;;;;6.53;2.05;;;;;;;21.35;36.57;99148.63;5031576;28;20041;-69
2022/02/21 09:35:12;;;;;;;6.30;1.40;;;;;;;21.38;36.52;99133.09;5036413;28;20485;-69
2022/02/21 09:37:38;;;;;;;7.38;2.33;;;;;;;21.40;36.28;99141.63;5038329;28;20041;-69
2022/02/21 09:40:09;;;;;;;4.63;2.00;;;;;;;21.48;36.16;99137.00;5037338;28;20725;-69
2022/02/21 09:42:37;;;;;;;4.07;1.63;;;;;;;21.46;36.17;99134.59;5036831;28;20033;-69
2022/02/21 09:45:05;;;;;;;6.03;1.70;;;;;;;21.44;36.19;99119.97;5038739;28;20047;-70
2022/02/21 09:47:31;;;;;;;5.20;2.15;;;;;;;21.42;36.33;99118.34;5037793;28;20033;-70
2022/02/21 09:49:57;;;;;;;5.45;1.70;;;;;;;21.44;36.12;99123.41;5035712;28;20042;-70
2022/02/21 09:52:25;;;;;;;4.32;1.63;;;;;;;21.43;36.38;99127.09;5031891;28;20299;-70
2022/02/21 09:54:51;;;;;;;5.80;1.80;;;;;;;21.36;36.67;99121.94;5035800;28;20507;-70
2022/02/21 09:57:17;;;;;;;4.10;1.65;;;;;;;21.34;36.54;99117.88;5026940;28;20024;-69
2022/02/21 09:59:43;;;;;;;6.28;1.90;;;;;;;21.24;36.71;99115.00;5039220;28;20048;-70
2022/02/21 10:02:16;;;;;;;4.72;2.33;;;;;;;21.16;36.54;99108.19;5031775;28;20036;-69
2022/02/21 10:04:41;;;;;;;4.70;1.50;;;;;;;21.29;36.58;99101.88;5037499;28;20102;-69
2022/02/21 10:07:07;;;;;;;6.28;1.63;;;;;;;21.35;36.41;99112.34;5031961;28;20275;-70
2022/02/21 10:09:38;;;;;;;5.38;1.30;;;;;;;21.36;36.48;99100.75;5039005;28;20171;-70
2022/02/21 10:12:06;;;;;;;4.30;1.50;;;;;;;21.45;36.67;99106.50;5028451;28;20056;-66
2022/02/21 10:14:32;;;;;;;4.88;2.05;;;;;;;21.66;36.82;99100.59;5003372;28;20055;-73
2022/02/21 10:17:00;;;;;;;4.82;1.38;;;;;;;21.57;36.56;99083.47;5035234;28;20388;-68
2022/02/21 10:19:41;;;;;;;6.80;1.73;;;;;;;21.71;36.96;99097.22;5038889;28;20056;-68
2022/02/21 10:22:10;;;;;;;5.57;1.58;;;;;;;21.52;37.50;99088.63;5035937;28;20134;-70
2022/02/21 10:24:41;;;;;;;3.70;1.25;;;;;;;21.48;38.14;99084.03;5036981;28;20055;-69
2022/02/21 10:27:17;;;;;;;5.03;1.40;;;;;;;21.56;38.21;99084.50;5033616;28;20587;-70
2022/02/21 10:29:48;;;;;;;2.97;1.30;;;;;;;21.67;38.00;99080.19;5025767;28;20041;-70
2022/02/21 10:32:16;;;;;;;3.65;1.40;;;;;;;21.71;37.81;99074.19;5025617;28;20033;-69
2022/02/21 10:34:45;;;;;;;3.08;1.48;;;;;;;21.69;37.95;99075.47;5033366;28;20044;-69
2022/02/21 10:37:12;;;;;;;3.83;1.38;;;;;;;21.85;37.93;99074.75;5008562;28;20069;-70
2022/02/21 10:39:38;;;;;;;3.97;1.40;;;;;;;21.80;37.93;99065.91;5034118;28;20550;-69
2022/02/21 10:42:07;;;;;;;2.13;1.33;;;;;;;21.82;38.16;99063.81;5006829;28;20222;-69
2022/02/21 10:44:38;;;;;;;4.75;1.20;;;;;;;21.82;37.95;99066.47;5036261;28;20076;-68
2022/02/21 10:47:14;;;;;;;3.63;1.30;;;;;;;21.87;37.70;99077.97;4996374;28;20041;-69
2022/02/21 10:49:48;;;;;;;2.65;1.15;;;;;;;21.80;38.14;99071.19;5039626;28;20481;-70
2022/02/21 10:52:22;;;;;;;3.78;1.70;;;;;;;21.76;38.03;99070.88;5004402;28;21259;-66
2022/02/21 10:54:49;;;;;;;2.55;1.10;;;;;;;21.83;37.77;99057.47;5039656;28;20482;-67
2022/02/21 10:57:20;;;;;;;2.97;1.58;;;;;;;21.91;37.89;99055.28;5001724;28;20442;-67
2022/02/21 10:59:47;;;;;;;2.58;1.17;;;;;;;21.87;38.08;99055.97;5035312;28;20055;-68
2022/02/21 11:02:16;;;;;;;2.17;1.10;;;;;;;21.81;37.82;99046.31;5006399;28;20112;-69
2022/02/21 11:04:43;;;;;;;3.00;0.93;;;;;;;21.73;38.10;99052.78;5021486;28;20052;-66
2022/02/21 11:07:10;;;;;;;4.63;1.38;;;;;;;21.60;38.05;99045.91;5034078;28;20055;-68
2022/02/21 11:09:37;;;;;;;2.85;1.17;;;;;;;21.71;38.07;99044.25;5005913;28;20033;-66
2022/02/21 11:12:04;;;;;;;2.38;1.15;;;;;;;21.68;38.22;99042.06;5032768;28;20037;-67
2022/02/21 11:14:32;;;;;;;3.03;1.23;;;;;;;21.73;38.23;99036.09;5002393;28;20557;-66
2022/02/21 11:17:02;;;;;;;3.90;1.10;;;;;;;21.90;37.94;99031.63;5041630;28;20541;-69
2022/02/21 11:19:28;;;;;;;4.35;0.95;;;;;;;21.67;38.09;99025.38;5007482;28;20052;-64
2022/02/21 11:21:53;;;;;;;3.42;1.23;;;;;;;21.76;37.81;99014.44;5028351;28;20120;-67
2022/02/21 11:24:31;;;;;;;0.85;0.60;;;;;;;21.71;38.09;99013.25;5036213;28;20550;-66
2022/02/21 11:27:13;;;;;;;3.85;0.88;;;;;;;21.74;38.21;99009.38;5008510;28;20554;-66
2022/02/21 11:30:19;;;;;;;4.03;1.25;;;;;;;21.74;37.97;99000.63;5032194;28;20056;-65
2022/02/21 11:33:02;;;;;;;4.80;1.08;;;;;;;21.65;38.09;98995.66;4955087;28;20039;-69